Terminal Aerodrome Forecast
Issued by NWS Amarillo, TX

Home | Current Version | Previous Version | Text Only | Print | Product List | Glossary On
Versions: 1 2 3 4 5 6 7 8 9 10 11 12 13 14 15 16
000
FTUS44 KAMA 232320
TAFAMA
TAF
KAMA 232320Z 2400/2424 08010KT P6SM VCTS SCT070CB BKN120
     FM240400 08008KT P6SM BKN120
     FM241400 14010KT P6SM SCT070 SCT120=

USA.gov is the U.S. government's official web portal to all federal, state and local government web resources and services.